• Join FlightAware (Why Join?)
  • Login
  • US Flag 
07:14AM EDT


 

Airport Tracker/Info


-or-


 

Live Flight TrackerFlight Track Log ✈ AAY861 ✈ 18-Aug-2014 ✈ KLEX - KPIE

Flight Track Log - Related Links

Times and Time Zones

All times are in EDT time to prevent confusion due to time zone crossing. See the AAY861 flight status page for this flight to view local times or setup timezone preferences in your user account.

Time Position Orientation Groundspeed Altitude Reporting Facility
EDT Latitude Longitude Course Direction KTS MPH feet Rate Location/Type
09:09AM 37.9569 -84.6469 166° South 257 296 3,600  Level Indianapolis Center
09:10AM 37.8828 -84.6239 166° South 264 304 6,100 2,640 Climbing Indianapolis Center
09:11AM 37.8022 -84.5956 164° South 286 329 9,000 2,280 Climbing Indianapolis Center
09:12AM 37.7172 -84.5769 170° South 304 350 10,800 1,920 Climbing Indianapolis Center
09:14AM 37.4282 -84.3164 166° South  Level FlightAware Approximate
09:14AM 37.5972 -84.5581 173° South 359 413 13,000  Level Indianapolis Center
09:15AM 37.3195 -84.2818 166° South  Level FlightAware Approximate
09:15AM 37.4897 -84.5414 173° South 382 440 15,300  Level Indianapolis Center
09:16AM 37.3800 -84.5317 176° South 390 449 17,300 1,860 Climbing Indianapolis Center
09:17AM 37.2658 -84.5292 179° South 401 461 19,200 1,740 Climbing Indianapolis Center
09:18AM 37.1497 -84.5264 179° South 412 474 20,900 1,740 Climbing Indianapolis Center
09:19AM 37.0119 -84.5231 179° South 421 484 22,800 1,560 Climbing Indianapolis Center
09:20AM 36.8917 -84.5194 179° South 424 488 24,200 1,320 Climbing Indianapolis Center
09:21AM 36.7697 -84.5167 179° South 433 498 25,600 1,200 Climbing Indianapolis Center
09:22AM 36.6425 -84.5133 179° South 445 512 26,800 1,140 Climbing Indianapolis Center
09:23AM 36.5144 -84.5089 178° South 452 520 28,000 1,140 Climbing Indianapolis Center
09:24AM 36.3858 -84.5061 179° South 457 526 29,200 1,200 Climbing Indianapolis Center
09:25AM 36.2333 -84.5017 179° South 463 533 30,500 1,200 Climbing Indianapolis Center
09:26AM 36.1025 -84.4983 179° South 465 535 31,800 1,200 Climbing Indianapolis Center
09:27AM 35.9739 -84.4953 179° South 466 536 33,000 720 Climbing Indianapolis Center
09:28AM 35.8469 -84.4919 179° South 461 531 33,300 480 Climbing Indianapolis Center
09:29AM 35.6986 -84.4889 179° South 461 531 34,000 900 Climbing Atlanta Center
09:30AM 35.5736 -84.4881 180° South 450 518 35,200 900 Climbing Atlanta Center
09:31AM 35.4650 -84.4850 179° South 450 518 35,800 360 Climbing Atlanta Center
09:32AM 35.3461 -84.4817 179° South 437 503 36,000 60 Climbing Atlanta Center
09:33AM 35.2208 -84.4786 179° South 443 510 36,000  Level Atlanta Center
09:34AM 35.0917 -84.4753 179° South 448 516 36,000 180 Level Atlanta Center
09:35AM 34.9664 -84.4697 178° South 458 527 36,400 480 Climbing Atlanta Center
09:36AM 34.8392 -84.4639 178° South 458 527 37,000 300 Climbing Atlanta Center
09:37AM 34.7119 -84.4608 179° South 458 527 37,000  Level Atlanta Center
09:38AM 34.5844 -84.4603 180° South 458 527 37,000  Level Atlanta Center
09:39AM 34.4511 -84.4569 179° South 464 534 37,100  Climbing Atlanta Center
09:40AM 34.3217 -84.4539 179° South 464 534 37,000 -60 Descending Atlanta Center
09:41AM 34.1944 -84.4481 178° South 464 534 37,000  Level Atlanta Center
09:42AM 34.0608 -84.4475 180° South 471 542 37,000  Level Atlanta Center
09:43AM 33.9292 -84.4444 179° South 476 548 37,000  Level Atlanta Center
09:44AM 33.8042 -84.4414 179° South 471 542 37,000  Level Atlanta Center
09:45AM 33.6725 -84.4381 179° South 471 542 37,000  Level Atlanta Center
09:46AM 33.5264 -84.4350 179° South 471 542 37,000  Level Atlanta Center
09:47AM 33.3969 -84.4319 179° South 471 542 37,000  Level Atlanta Center
09:48AM 33.2697 -84.4314 180° South 471 542 37,000  Level Atlanta Center
09:49AM 33.1425 -84.4258 178° South 465 535 37,000  Level Atlanta Center
09:50AM 33.0150 -84.4253 180° South 460 529 37,000  Level Atlanta Center
09:51AM 32.8878 -84.4222 179° South 460 529 37,000  Level Atlanta Center
09:52AM 32.7625 -84.4192 179° South 460 529 37,000  Level Atlanta Center
09:53AM 32.6372 -84.4161 179° South 453 521 37,000  Level Atlanta Center
09:54AM 32.5100 -84.4133 179° South 459 528 37,000  Level Atlanta Center
09:56AM 32.2619 -84.4083 179° South 441 507 37,000  Level Jacksonville Center
09:57AM 32.1344 -84.4064 179° South 446 513 37,000  Level Jacksonville Center
09:58AM 32.0072 -84.4042 179° South 452 520 37,000  Level Jacksonville Center
09:59AM 31.8800 -84.3997 178° South 457 526 37,000  Level Jacksonville Center
10:00AM 31.7547 -84.3978 179° South 457 526 37,000  Level Jacksonville Center
10:01AM 31.6294 -84.3981 180° South 457 526 37,000  Level Jacksonville Center
10:02AM 31.5025 -84.3644 167° South 457 526 37,000  Level Jacksonville Center
10:03AM 31.3817 -84.3333 168° South 457 526 37,000  Level Jacksonville Center
10:04AM 31.2589 -84.2972 166° South 457 526 37,000  Level Jacksonville Center
10:05AM 31.1361 -84.2639 167° South 457 526 37,000  Level Jacksonville Center
10:06AM 31.0133 -84.2258 165° South 452 520 37,000  Level Jacksonville Center
10:07AM 30.8906 -84.1925 167° South 452 520 37,000  Level Jacksonville Center
10:08AM 30.7656 -84.1594 167° South 452 520 37,000  Level Jacksonville Center
10:09AM 30.6428 -84.1239 166° South 452 520 37,000  Level Jacksonville Center
10:10AM 30.5386 -84.0936 166° South 452 520 37,000  Level Jacksonville Center
10:11AM 30.4156 -84.0583 166° South 447 514 37,000 -60 Level Jacksonville Center
10:12AM 30.2928 -84.0281 168° South 452 520 36,900  Descending Jacksonville Center
10:13AM 30.1700 -83.9953 167° South 452 520 37,000  Climbing Jacksonville Center
10:14AM 30.0469 -83.9603 166° South 452 520 37,000  Level Jacksonville Center
10:15AM 29.9261 -83.9278 167° South 452 520 37,000  Level Jacksonville Center
10:16AM 29.8075 -83.8908 165° South 452 520 37,000 -1,020 Level Jacksonville Center
10:17AM 29.6953 -83.8203 151° Southeast 447 514 35,000 -2,400 Descending Jacksonville Center
10:18AM 29.5850 -83.7475 150° Southeast 453 521 32,300 -2,460 Descending Jacksonville Center
10:19AM 29.4792 -83.6775 150° Southeast 448 516 30,100 -2,220 Descending Jacksonville Center
10:20AM 29.3753 -83.6100 150° Southeast 443 510 27,900 -2,160 Descending Jacksonville Center
10:21AM 29.2733 -83.5447 151° Southeast 432 497 25,800 -1,800 Descending Jacksonville Center
10:22AM 29.1733 -83.4800 151° Southeast 426 490 24,400 -1,320 Descending Jacksonville Center
10:23AM 29.0672 -83.4128 151° Southeast 408 470 23,200 -1,080 Descending Jacksonville Center
10:24AM 28.9692 -83.3531 152° Southeast 408 470 22,300 -960 Descending Jacksonville Center
10:25AM 28.8756 -83.2886 149° Southeast 403 464 21,300 -1,260 Descending Jacksonville Center
10:26AM 28.7839 -83.2314 151° Southeast 391 450 19,800 -1,680 Descending Jacksonville Center
10:28AM 28.6378 -83.1381 151° Southeast 376 433 16,900 -1,740 Descending Miami Center
10:28AM 28.5667 -83.1000 155° Southeast 370 426 15,700 -1,740 Descending Tampa TRACON
10:29AM 28.4833 -83.0500 152° Southeast 361 415 14,200 -1,620 Descending Tampa TRACON
10:30AM 28.4000 -82.9833 145° Southeast 351 404 12,700 -1,680 Descending Tampa TRACON
10:31AM 28.3333 -82.9167 139° Southeast 331 381 10,900 -1,740 Descending Tampa TRACON
10:32AM 28.2967 -82.8903 148° Southeast 335 386 10,100 -1,860 Descending Miami Center
10:32AM 28.2500 -82.8500 143° Southeast 303 349 8,900 -2,280 Descending Tampa TRACON
10:33AM 28.2000 -82.8000 139° Southeast 283 326 6,600 -2,340 Descending Tampa TRACON
10:34AM 28.1333 -82.7500 147° Southeast 276 318 4,300 -2,040 Descending Tampa TRACON
10:35AM 28.0667 -82.7167 156° South 262 302 2,600 -1,380 Descending Tampa TRACON
10:36AM 28.0167 -82.6667 139° Southeast 215 247 1,600 -900 Descending Tampa TRACON
10:37AM 27.9667 -82.6833 196° South 146 168 800 -540 Descending Tampa TRACON
10:39AM 27.8986 -82.6981 191° South 170 196 300 -360 Descending Miami Center